Time;durP1;ratioP1;P1;durP2;ratioP2;P2;SDS_P1;SDS_P2;PMS_P1;PMS_P2;Temp;Humidity;BMP_temperature;BMP_pressure;BME280_temperature;BME280_humidity;BME280_pressure;Samples;Min_cycle;Max_cycle;Signal;HPM_P1;HPM_P2
2024/03/08 00:00:09;;;;;;;;;;;;;;;6.48;56.49;99886.91;4168409;28;19915;-81
2024/03/08 00:02:09;;;;;;;;;;;;;;;6.22;57.35;99894.28;4182751;28;19908;-83
2024/03/08 00:04:10;;;;;;;;;;;;;;;6.17;57.32;99891.16;4170314;28;20173;-85
2024/03/08 00:06:10;;;;;;;;;;;;;;;6.13;57.23;99893.19;4176046;28;19913;-83
2024/03/08 00:08:11;;;;;;;;;;;;;;;6.09;57.79;99892.59;4176143;28;19913;-82
2024/03/08 00:10:12;;;;;;;;;;;;;;;6.12;57.72;99885.38;4173156;28;19974;-81
2024/03/08 00:12:13;;;;;;;;;;;;;;;6.05;57.74;99885.81;4179021;28;19912;-81
2024/03/08 00:14:13;;;;;;;;;;;;;;;5.98;58.13;99891.72;4185516;28;20007;-81
2024/03/08 00:16:13;;;;;;;;;;;;;;;5.87;58.30;99877.47;4182768;28;19916;-80
2024/03/08 00:18:14;;;;;;;;;;;;;;;5.92;58.08;99882.41;4179086;28;19915;-81
2024/03/08 00:20:17;;;;;;;;;;;;;;;5.73;58.60;99878.53;4179246;28;19955;-81
2024/03/08 00:22:18;;;;;;;;;;;;;;;5.71;58.65;99883.09;4177448;28;19980;-81
2024/03/08 00:24:18;;;;;;;;;;;;;;;5.70;58.82;99873.44;4175796;28;20009;-80
2024/03/08 00:26:18;;;;;;;;;;;;;;;5.67;58.92;99878.16;4180529;28;19935;-80
2024/03/08 00:28:18;;;;;;;;;;;;;;;5.77;58.56;99876.47;4171272;28;19917;-81
2024/03/08 00:30:19;;;;;;;;;;;;;;;5.73;58.66;99867.06;4168248;28;19959;-81
2024/03/08 00:32:19;;;;;;;;;;;;;;;5.74;58.73;99868.75;4171025;28;19909;-81
2024/03/08 00:34:19;;;;;;;;;;;;;;;5.78;58.53;99863.09;4170864;28;19979;-81
2024/03/08 00:36:20;;;;;;;;;;;;;;;5.67;58.69;99863.06;4177132;28;19924;-80
2024/03/08 00:38:20;;;;;;;;;;;;;;;5.61;58.89;99863.53;4193145;28;20415;-79
2024/03/08 00:40:20;;;;;;;;;;;;;;;5.58;58.95;99863.78;4201001;28;19999;-81
2024/03/08 00:42:21;;;;;;;;;;;;;;;5.57;58.93;99857.63;4193541;28;19908;-79
2024/03/08 00:44:22;;;;;;;;;;;;;;;5.58;58.95;99858.47;4188712;28;20360;-78
2024/03/08 00:46:22;;;;;;;;;;;;;;;5.68;58.68;99854.16;4174169;28;20366;-81
2024/03/08 00:48:23;;;;;;;;;;;;;;;5.57;58.89;99862.09;4179381;28;19960;-80
2024/03/08 00:50:23;;;;;;;;;;;;;;;5.60;58.74;99860.06;4178494;28;19912;-82
2024/03/08 00:52:24;;;;;;;;;;;;;;;5.53;58.87;99853.50;4184616;28;19959;-81
2024/03/08 00:54:25;;;;;;;;;;;;;;;5.60;59.00;99853.91;4187929;28;20279;-80
2024/03/08 00:56:25;;;;;;;;;;;;;;;5.67;58.62;99846.31;4174181;28;20000;-79
2024/03/08 00:58:26;;;;;;;;;;;;;;;5.69;58.50;99850.53;4182192;28;19912;-80
2024/03/08 01:00:26;;;;;;;;;;;;;;;5.77;57.91;99850.78;4186058;28;19959;-80
2024/03/08 01:02:26;;;;;;;;;;;;;;;5.58;58.74;99843.41;4174147;28;20133;-81
2024/03/08 01:04:28;;;;;;;;;;;;;;;5.52;58.83;99837.72;4171353;28;19919;-79
2024/03/08 01:06:29;;;;;;;;;;;;;;;5.28;59.14;99838.66;4179860;28;19934;-80
2024/03/08 01:08:29;;;;;;;;;;;;;;;5.28;59.38;99841.31;4183095;28;20011;-79
2024/03/08 01:10:29;;;;;;;;;;;;;;;5.35;59.34;99833.72;4189821;28;19913;-79
2024/03/08 01:12:29;;;;;;;;;;;;;;;5.29;59.17;99827.09;4198104;28;19927;-81
2024/03/08 01:14:30;;;;;;;;;;;;;;;5.31;59.07;99826.00;4183231;28;19925;-81
2024/03/08 01:16:33;;;;;;;;;;;;;;;5.49;58.65;99828.22;4170694;28;19936;-83
2024/03/08 01:18:33;;;;;;;;;;;;;;;5.23;59.36;99815.16;4166456;28;19916;-80
2024/03/08 01:20:33;;;;;;;;;;;;;;;5.40;59.07;99813.84;4178822;28;20307;-80
2024/03/08 01:22:34;;;;;;;;;;;;;;;5.38;59.02;99814.94;4174418;28;19983;-79
2024/03/08 01:24:34;;;;;;;;;;;;;;;5.26;59.17;99811.41;4179077;28;19916;-80
2024/03/08 01:26:35;;;;;;;;;;;;;;;5.21;59.25;99814.41;4173195;28;20392;-81
2024/03/08 01:28:35;;;;;;;;;;;;;;;5.20;59.30;99811.84;4179176;28;19913;-80
2024/03/08 01:30:37;;;;;;;;;;;;;;;5.28;59.01;99799.72;4189783;28;19912;-79
2024/03/08 01:32:38;;;;;;;;;;;;;;;5.09;59.63;99795.00;4182678;28;20346;-78
2024/03/08 01:34:38;;;;;;;;;;;;;;;5.35;59.24;99800.09;4182300;28;19909;-78
2024/03/08 01:36:38;;;;;;;;;;;;;;;5.43;58.79;99796.88;4187714;28;19912;-81
2024/03/08 01:38:39;;;;;;;;;;;;;;;5.35;58.82;99791.28;4184853;28;20502;-81
2024/03/08 01:40:40;;;;;;;;;;;;;;;5.43;58.48;99802.19;4177483;28;19908;-81
2024/03/08 01:42:41;;;;;;;;;;;;;;;5.43;58.86;99792.41;4187822;28;20406;-81
2024/03/08 01:44:43;;;;;;;;;;;;;;;5.45;58.64;99786.97;4178046;28;19915;-84
2024/03/08 01:46:45;;;;;;;;;;;;;;;5.40;58.60;99787.31;4185530;28;19909;-80
2024/03/08 01:48:45;;;;;;;;;;;;;;;5.38;58.94;99785.75;4184809;28;20474;-83
2024/03/08 01:50:47;;;;;;;;;;;;;;;5.16;59.32;99787.38;4183908;28;19916;-84
2024/03/08 01:52:49;;;;;;;;;;;;;;;5.18;59.39;99782.00;4191411;28;19913;-80
2024/03/08 01:54:51;;;;;;;;;;;;;;;5.08;59.44;99787.13;4182637;28;20738;-77
2024/03/08 01:56:53;;;;;;;;;;;;;;;5.17;59.26;99780.31;4180100;28;20583;-81
2024/03/08 01:58:54;;;;;;;;;;;;;;;5.17;59.22;99780.31;4180753;28;19912;-81
2024/03/08 02:00:54;;;;;;;;;;;;;;;5.11;59.59;99773.66;4181339;28;20073;-77
2024/03/08 02:02:54;;;;;;;;;;;;;;;5.20;59.24;99769.44;4173189;28;20394;-80
2024/03/08 02:04:55;;;;;;;;;;;;;;;5.13;59.34;99772.56;4184563;28;19912;-80
2024/03/08 02:06:55;;;;;;;;;;;;;;;5.23;59.18;99763.91;4183435;28;20269;-80
2024/03/08 02:08:56;;;;;;;;;;;;;;;5.46;58.56;99754.19;4182450;28;19913;-81
2024/03/08 02:10:57;;;;;;;;;;;;;;;5.37;58.53;99757.56;4181933;28;19913;-79
2024/03/08 02:12:58;;;;;;;;;;;;;;;5.18;58.79;99744.91;4184088;28;19908;-78
2024/03/08 02:14:58;;;;;;;;;;;;;;;5.16;58.98;99742.34;4180594;28;19912;-78
2024/03/08 02:17:02;;;;;;;;;;;;;;;5.25;58.97;99740.81;4172860;28;19917;-78
2024/03/08 02:19:02;;;;;;;;;;;;;;;5.18;59.15;99755.50;4164364;28;19919;-79
2024/03/08 02:21:04;;;;;;;;;;;;;;;5.22;58.94;99741.03;4180566;28;19917;-80
2024/03/08 02:23:04;;;;;;;;;;;;;;;5.27;58.94;99752.13;4179463;28;19942;-78
2024/03/08 02:25:05;;;;;;;;;;;;;;;5.28;58.64;99753.81;4179085;28;20524;-78
2024/03/08 02:27:06;;;;;;;;;;;;;;;5.25;58.86;99738.16;4173431;28;20015;-78
2024/03/08 02:29:06;;;;;;;;;;;;;;;5.12;59.44;99746.19;4188907;28;20364;-78
2024/03/08 02:31:08;;;;;;;;;;;;;;;5.05;59.41;99737.88;4180119;28;19917;-78
2024/03/08 02:33:11;;;;;;;;;;;;;;;5.15;59.04;99744.16;4180907;28;20384;-78
2024/03/08 02:35:11;;;;;;;;;;;;;;;5.18;59.11;99734.28;4188443;28;20327;-79
2024/03/08 02:37:11;;;;;;;;;;;;;;;5.03;59.48;99737.13;4180977;28;19912;-79
2024/03/08 02:39:12;;;;;;;;;;;;;;;5.09;59.54;99739.34;4179526;28;19915;-79
2024/03/08 02:41:12;;;;;;;;;;;;;;;5.06;59.41;99730.75;4172217;28;19913;-82
2024/03/08 02:43:14;;;;;;;;;;;;;;;5.03;59.56;99729.19;4181074;28;19995;-80
2024/03/08 02:45:15;;;;;;;;;;;;;;;4.87;59.86;99729.50;4198531;28;19908;-84
2024/03/08 02:47:16;;;;;;;;;;;;;;;4.85;60.04;99723.50;4190127;28;19897;-84
2024/03/08 02:49:16;;;;;;;;;;;;;;;4.75;60.25;99717.19;4192302;28;19943;-85
2024/03/08 02:51:16;;;;;;;;;;;;;;;4.91;60.02;99727.50;4200273;28;19915;-86
2024/03/08 02:53:18;;;;;;;;;;;;;;;4.60;60.94;99719.19;4190693;28;19944;-81
2024/03/08 02:55:19;;;;;;;;;;;;;;;4.64;60.75;99721.50;4183297;28;20283;-81
2024/03/08 02:57:20;;;;;;;;;;;;;;;4.73;60.52;99719.94;4179184;28;19913;-82
2024/03/08 02:59:20;;;;;;;;;;;;;;;4.89;60.13;99724.09;4182852;28;19971;-83
2024/03/08 03:01:22;;;;;;;;;;;;;;;4.83;60.40;99720.13;4182046;28;20300;-80
2024/03/08 03:03:22;;;;;;;;;;;;;;;4.99;60.13;99719.81;4188824;28;19920;-84
2024/03/08 03:05:23;;;;;;;;;;;;;;;4.94;59.89;99719.28;4181883;28;19915;-83
2024/03/08 03:07:27;;;;;;;;;;;;;;;5.04;59.73;99712.34;4181569;28;20421;-82
2024/03/08 03:09:27;;;;;;;;;;;;;;;5.06;59.63;99717.50;4180118;28;19912;-81
2024/03/08 03:11:28;;;;;;;;;;;;;;;4.96;59.80;99715.56;4193165;28;20249;-80
2024/03/08 03:13:29;;;;;;;;;;;;;;;4.96;59.75;99712.91;4186520;28;20015;-81
2024/03/08 03:15:29;;;;;;;;;;;;;;;4.92;59.71;99710.59;4189210;28;20399;-81
2024/03/08 03:17:30;;;;;;;;;;;;;;;4.71;60.51;99706.00;4181945;28;19919;-80
2024/03/08 03:19:30;;;;;;;;;;;;;;;4.59;60.61;99701.63;4175887;28;19916;-81
2024/03/08 03:21:31;;;;;;;;;;;;;;;4.53;60.97;99706.38;4167066;28;19920;-81
2024/03/08 03:23:33;;;;;;;;;;;;;;;4.69;60.59;99702.63;4187566;28;19916;-80
2024/03/08 03:25:35;;;;;;;;;;;;;;;4.65;60.68;99693.19;4193499;28;19994;-82
2024/03/08 03:27:35;;;;;;;;;;;;;;;4.69;60.24;99698.16;4193389;28;20028;-81
2024/03/08 03:29:42;;;;;;;;;;;;;;;4.78;60.32;99693.97;4184673;28;19916;-79
2024/03/08 03:31:42;;;;;;;;;;;;;;;4.76;60.34;99692.41;4172460;28;19909;-79
2024/03/08 03:33:42;;;;;;;;;;;;;;;4.80;59.97;99689.41;4178608;28;19952;-78
2024/03/08 03:35:44;;;;;;;;;;;;;;;4.72;60.84;99685.66;4197164;28;19908;-79
2024/03/08 03:38:01;;;;;;;;;;;;;;;4.78;60.30;99688.69;4174085;28;20380;-79
2024/03/08 03:40:01;;;;;;;;;;;;;;;4.73;60.56;99682.88;4179353;28;19916;-80
2024/03/08 03:42:02;;;;;;;;;;;;;;;4.69;60.35;99678.78;4186339;28;19973;-79
2024/03/08 03:44:02;;;;;;;;;;;;;;;4.67;60.80;99681.56;4180147;28;20054;-80
2024/03/08 03:46:05;;;;;;;;;;;;;;;4.82;60.33;99687.47;4186558;28;19916;-79
2024/03/08 03:48:06;;;;;;;;;;;;;;;4.96;59.96;99689.06;4181361;28;19913;-79
2024/03/08 03:50:09;;;;;;;;;;;;;;;5.02;59.67;99676.31;4187135;28;19909;-79
2024/03/08 03:52:10;;;;;;;;;;;;;;;5.02;59.62;99679.81;4178872;28;20376;-79
2024/03/08 03:54:10;;;;;;;;;;;;;;;4.92;60.19;99684.97;4178253;28;19913;-78
2024/03/08 03:56:10;;;;;;;;;;;;;;;5.04;59.81;99675.25;4186940;28;19923;-79
2024/03/08 03:58:11;;;;;;;;;;;;;;;5.10;59.74;99685.34;4173626;28;20003;-80
2024/03/08 04:00:11;;;;;;;;;;;;;;;5.14;59.54;99681.50;4173763;28;19913;-80
2024/03/08 04:02:12;;;;;;;;;;;;;;;5.12;59.10;99672.84;4179191;28;20476;-81
2024/03/08 04:04:12;;;;;;;;;;;;;;;5.13;59.26;99677.19;4170991;28;19912;-80
2024/03/08 04:06:12;;;;;;;;;;;;;;;5.21;59.24;99675.72;4188606;28;19948;-80
2024/03/08 04:08:13;;;;;;;;;;;;;;;5.18;59.13;99676.81;4186690;28;19962;-79
2024/03/08 04:10:13;;;;;;;;;;;;;;;5.27;59.09;99677.91;4163370;28;19913;-79
2024/03/08 04:12:15;;;;;;;;;;;;;;;5.25;59.08;99678.03;4178094;28;20038;-81
2024/03/08 04:14:15;;;;;;;;;;;;;;;5.15;58.92;99680.56;4173072;28;19974;-80
2024/03/08 04:16:16;;;;;;;;;;;;;;;5.14;59.32;99680.69;4175303;28;19913;-79
2024/03/08 04:18:16;;;;;;;;;;;;;;;5.00;59.45;99679.94;4181886;28;20538;-80
2024/03/08 04:20:17;;;;;;;;;;;;;;;4.68;60.32;99677.91;4175932;28;19919;-82
2024/03/08 04:22:17;;;;;;;;;;;;;;;4.93;59.83;99677.88;4180752;28;19916;-80
2024/03/08 04:24:18;;;;;;;;;;;;;;;4.88;60.10;99675.56;4174354;28;20000;-80
2024/03/08 04:26:18;;;;;;;;;;;;;;;4.79;60.44;99670.97;4190782;28;19967;-79
2024/03/08 04:28:18;;;;;;;;;;;;;;;4.92;59.89;99660.28;4176558;28;19980;-80
2024/03/08 04:30:21;;;;;;;;;;;;;;;5.10;59.52;99676.56;4190890;28;20372;-80
2024/03/08 04:32:22;;;;;;;;;;;;;;;5.16;59.18;99673.44;4183692;28;20559;-80
2024/03/08 04:34:22;;;;;;;;;;;;;;;5.00;59.73;99669.34;4176118;28;19921;-80
2024/03/08 04:36:24;;;;;;;;;;;;;;;5.09;59.60;99666.94;4175853;28;19913;-79
2024/03/08 04:38:25;;;;;;;;;;;;;;;5.22;59.43;99672.13;4174970;28;19920;-79
2024/03/08 04:40:25;;;;;;;;;;;;;;;5.22;59.38;99666.81;4176242;28;19917;-80
2024/03/08 04:42:29;;;;;;;;;;;;;;;5.23;58.89;99663.22;4179310;28;19912;-79
2024/03/08 04:44:30;;;;;;;;;;;;;;;5.08;59.48;99660.81;4181304;28;20008;-79
2024/03/08 04:46:30;;;;;;;;;;;;;;;5.04;59.36;99662.00;4177635;28;19917;-79
2024/03/08 04:48:31;;;;;;;;;;;;;;;4.99;59.37;99656.22;4189075;28;19962;-80
2024/03/08 04:50:31;;;;;;;;;;;;;;;5.03;59.77;99657.66;4177798;28;19915;-80
2024/03/08 04:52:31;;;;;;;;;;;;;;;5.12;59.11;99656.94;4187276;28;20411;-80
2024/03/08 04:54:32;;;;;;;;;;;;;;;5.02;59.76;99663.91;4180201;28;19963;-79
2024/03/08 04:56:33;;;;;;;;;;;;;;;4.94;59.91;99658.34;4174756;28;20283;-80
2024/03/08 04:58:36;;;;;;;;;;;;;;;4.89;60.12;99660.53;4172053;28;20494;-80
2024/03/08 05:00:37;;;;;;;;;;;;;;;4.61;60.59;99668.75;4177920;28;19981;-80
2024/03/08 05:02:41;;;;;;;;;;;;;;;4.65;60.64;99658.78;4174235;28;19960;-81
2024/03/08 05:04:42;;;;;;;;;;;;;;;4.68;60.83;99656.75;4204573;28;19913;-83
2024/03/08 05:06:42;;;;;;;;;;;;;;;4.60;60.78;99651.19;4189814;28;19919;-80
2024/03/08 05:08:43;;;;;;;;;;;;;;;4.48;61.14;99655.59;4188365;28;19916;-80
2024/03/08 05:10:43;;;;;;;;;;;;;;;4.43;61.36;99655.13;4190287;28;19955;-81
2024/03/08 05:12:44;;;;;;;;;;;;;;;4.38;61.37;99649.31;4195648;28;19989;-81
2024/03/08 05:14:46;;;;;;;;;;;;;;;4.33;61.59;99652.31;4197037;28;19943;-80
2024/03/08 05:16:49;;;;;;;;;;;;;;;4.50;61.26;99651.03;4199491;28;19939;-81
2024/03/08 05:18:51;;;;;;;;;;;;;;;4.50;61.23;99656.34;4197766;28;19923;-83
2024/03/08 05:20:52;;;;;;;;;;;;;;;4.52;61.37;99656.22;4202662;28;19917;-81
2024/03/08 05:22:52;;;;;;;;;;;;;;;4.55;61.22;99653.34;4183993;28;19920;-80
2024/03/08 05:24:53;;;;;;;;;;;;;;;4.62;61.42;99649.28;4183223;28;19913;-80
2024/03/08 05:26:53;;;;;;;;;;;;;;;4.53;60.96;99653.44;4183553;28;19920;-80
2024/03/08 05:28:54;;;;;;;;;;;;;;;4.36;61.59;99643.28;4182667;28;20359;-79
2024/03/08 05:30:56;;;;;;;;;;;;;;;4.47;61.48;99645.97;4185212;28;19919;-79
2024/03/08 05:32:56;;;;;;;;;;;;;;;4.40;61.63;99649.19;4189458;28;19912;-79
2024/03/08 05:34:57;;;;;;;;;;;;;;;4.39;62.11;99644.88;4192645;28;19962;-81
2024/03/08 05:36:58;;;;;;;;;;;;;;;4.29;62.06;99639.41;4189175;28;19909;-80
2024/03/08 05:38:58;;;;;;;;;;;;;;;4.14;62.27;99642.25;4188930;28;19919;-79
2024/03/08 05:40:59;;;;;;;;;;;;;;;4.11;62.87;99642.47;4182383;28;19934;-80
2024/03/08 05:42:59;;;;;;;;;;;;;;;4.21;62.55;99638.19;4184883;28;19912;-81
2024/03/08 05:45:01;;;;;;;;;;;;;;;4.11;62.63;99639.81;4185519;28;20003;-80
2024/03/08 05:47:01;;;;;;;;;;;;;;;4.10;62.87;99638.13;4184277;28;19913;-80
2024/03/08 05:49:05;;;;;;;;;;;;;;;4.29;62.35;99642.06;4188881;28;19912;-79
2024/03/08 05:51:05;;;;;;;;;;;;;;;4.33;62.03;99641.72;4190510;28;19908;-80
2024/03/08 05:53:06;;;;;;;;;;;;;;;4.34;62.17;99639.94;4190001;28;19915;-80
2024/03/08 05:55:07;;;;;;;;;;;;;;;4.13;62.50;99637.06;4181688;28;19908;-80
2024/03/08 05:57:10;;;;;;;;;;;;;;;4.20;62.41;99647.09;4182183;28;19909;-79
2024/03/08 05:59:11;;;;;;;;;;;;;;;4.26;62.57;99642.28;4183631;28;19913;-84
2024/03/08 06:01:12;;;;;;;;;;;;;;;4.41;62.29;99637.66;4184250;28;19916;-80
2024/03/08 06:03:13;;;;;;;;;;;;;;;4.41;62.06;99635.84;4183169;28;19916;-83
2024/03/08 06:05:13;;;;;;;;;;;;;;;4.36;61.76;99636.19;4183193;28;20364;-81
2024/03/08 06:07:14;;;;;;;;;;;;;;;4.22;62.34;99633.72;4182638;28;19909;-80
2024/03/08 06:09:22;;;;;;;;;;;;;;;4.24;62.67;99633.63;4180970;28;19924;-80
2024/03/08 06:11:26;;;;;;;;;;;;;;;4.35;62.09;99633.66;4183000;28;20415;-80
2024/03/08 06:13:27;;;;;;;;;;;;;;;4.26;62.32;99636.97;4182964;28;20038;-82
2024/03/08 06:15:28;;;;;;;;;;;;;;;4.15;62.69;99635.16;4184086;28;19912;-83
2024/03/08 06:17:29;;;;;;;;;;;;;;;3.94;63.02;99632.28;4167196;28;19953;-82
2024/03/08 06:19:29;;;;;;;;;;;;;;;4.00;62.87;99626.53;4167279;28;20400;-80
2024/03/08 06:21:36;;;;;;;;;;;;;;;4.09;62.98;99644.38;4176827;28;19967;-85
2024/03/08 06:23:38;;;;;;;;;;;;;;;3.95;63.18;99633.97;4184824;28;20277;-80
2024/03/08 06:25:38;;;;;;;;;;;;;;;3.96;63.30;99633.03;4183965;28;19908;-82
2024/03/08 06:27:38;;;;;;;;;;;;;;;3.85;63.48;99629.38;4184048;28;20332;-81
2024/03/08 06:29:39;;;;;;;;;;;;;;;3.97;63.46;99632.91;4184776;28;19913;-79
2024/03/08 06:31:39;;;;;;;;;;;;;;;4.06;63.52;99623.47;4183395;28;19927;-84
2024/03/08 06:33:40;;;;;;;;;;;;;;;4.11;63.03;99623.94;4183969;28;20276;-86
2024/03/08 06:35:41;;;;;;;;;;;;;;;3.95;63.37;99634.81;4184381;28;19967;-83
2024/03/08 06:37:47;;;;;;;;;;;;;;;4.07;63.36;99627.75;4182293;28;19912;-84
2024/03/08 06:39:51;;;;;;;;;;;;;;;4.04;63.31;99628.00;4184336;28;19908;-80
2024/03/08 06:41:52;;;;;;;;;;;;;;;4.01;63.30;99638.81;4184469;28;19913;-79
2024/03/08 06:43:57;;;;;;;;;;;;;;;4.09;63.13;99636.44;4185246;28;19909;-80
2024/03/08 06:45:59;;;;;;;;;;;;;;;3.98;63.38;99634.59;4192757;28;19999;-80
2024/03/08 06:48:00;;;;;;;;;;;;;;;4.26;63.04;99639.63;4191316;28;19913;-81
2024/03/08 06:50:02;;;;;;;;;;;;;;;4.32;62.46;99633.91;4190661;28;19920;-82
2024/03/08 06:52:10;;;;;;;;;;;;;;;4.56;62.08;99633.00;4192536;28;20498;-79
2024/03/08 06:54:10;;;;;;;;;;;;;;;4.46;62.12;99636.34;4186640;28;19909;-82
2024/03/08 06:56:10;;;;;;;;;;;;;;;4.56;62.18;99639.16;4193155;28;19924;-80
2024/03/08 06:58:13;;;;;;;;;;;;;;;4.64;61.45;99630.59;4182220;28;19913;-82
2024/03/08 07:00:28;;;;;;;;;;;;;;;4.77;61.62;99646.44;4180195;28;19969;-82
2024/03/08 07:02:32;;;;;;;;;;;;;;;4.79;61.41;99629.44;4179834;28;19920;-84
2024/03/08 07:04:33;;;;;;;;;;;;;;;4.83;61.33;99635.34;4174151;28;19909;-88
2024/03/08 07:06:34;;;;;;;;;;;;;;;4.94;60.90;99635.38;4170520;28;19909;-83
2024/03/08 07:08:34;;;;;;;;;;;;;;;5.04;60.60;99638.16;4178390;28;19917;-85
2024/03/08 07:10:35;;;;;;;;;;;;;;;5.14;60.40;99631.16;4186792;28;19909;-84
2024/03/08 07:12:36;;;;;;;;;;;;;;;5.07;60.39;99623.81;4186245;28;19909;-81
2024/03/08 07:14:40;;;;;;;;;;;;;;;5.17;60.26;99631.91;4182197;28;20422;-84
2024/03/08 07:16:41;;;;;;;;;;;;;;;5.29;60.00;99628.28;4183078;28;19909;-80
2024/03/08 07:18:43;;;;;;;;;;;;;;;5.17;60.11;99624.78;4184102;28;19915;-78
2024/03/08 07:20:43;;;;;;;;;;;;;;;5.03;60.44;99631.16;4183190;28;19964;-80
2024/03/08 07:22:43;;;;;;;;;;;;;;;5.06;60.26;99625.63;4183501;28;19909;-80
2024/03/08 07:25:10;;;;;;;;;;;;;;;5.24;60.12;99628.63;4184240;28;20303;-80
2024/03/08 07:27:11;;;;;;;;;;;;;;;5.27;59.87;99619.63;4185756;28;19913;-80
2024/03/08 07:29:12;;;;;;;;;;;;;;;5.46;59.44;99611.03;4183519;28;19917;-79
2024/03/08 07:33:27;;;;;;;;;;;;;;;5.20;59.93;99613.09;4184944;28;19944;-80
2024/03/08 07:35:29;;;;;;;;;;;;;;;5.29;59.90;99613.22;4181373;28;20350;-85
2024/03/08 07:37:37;;;;;;;;;;;;;;;5.37;59.81;99607.31;4184739;28;19908;-81
2024/03/08 07:39:38;;;;;;;;;;;;;;;5.62;59.12;99608.00;4183340;28;19971;-86
2024/03/08 07:41:42;;;;;;;;;;;;;;;5.50;58.95;99606.31;4185349;28;19943;-83
2024/03/08 07:43:49;;;;;;;;;;;;;;;5.41;59.37;99605.25;4184789;28;19991;-82
2024/03/08 07:45:49;;;;;;;;;;;;;;;5.66;58.72;99604.13;4184901;28;19916;-83
2024/03/08 07:47:50;;;;;;;;;;;;;;;5.74;58.63;99598.19;4182687;28;20103;-78
2024/03/08 07:49:51;;;;;;;;;;;;;;;5.45;59.10;99599.59;4180983;28;19924;-78
2024/03/08 07:51:51;;;;;;;;;;;;;;;5.60;58.86;99597.53;4181275;28;20000;-77
2024/03/08 07:53:52;;;;;;;;;;;;;;;5.53;58.93;99596.31;4181528;28;19908;-80
2024/03/08 07:55:52;;;;;;;;;;;;;;;5.42;59.26;99594.53;4181651;28;19995;-78
2024/03/08 07:57:52;;;;;;;;;;;;;;;5.74;58.48;99604.34;4180687;28;20273;-79
2024/03/08 07:59:53;;;;;;;;;;;;;;;5.63;58.58;99589.28;4179020;28;19909;-79
2024/03/08 08:01:53;;;;;;;;;;;;;;;5.56;58.66;99585.47;4169743;28;19930;-78
2024/03/08 08:03:53;;;;;;;;;;;;;;;5.62;58.78;99590.25;4183651;28;19962;-78
2024/03/08 08:05:54;;;;;;;;;;;;;;;5.82;58.16;99584.31;4197161;28;20608;-78
2024/03/08 08:07:54;;;;;;;;;;;;;;;5.89;57.77;99577.53;4181378;28;19955;-77
2024/03/08 08:09:54;;;;;;;;;;;;;;;6.12;57.19;99577.47;4175739;28;20011;-79
2024/03/08 08:11:57;;;;;;;;;;;;;;;6.02;57.20;99575.59;4179966;28;19912;-81
2024/03/08 08:13:57;;;;;;;;;;;;;;;5.84;57.68;99582.38;4181724;28;19909;-82
2024/03/08 08:15:57;;;;;;;;;;;;;;;6.12;57.35;99585.44;4181103;28;19909;-79
2024/03/08 08:17:58;;;;;;;;;;;;;;;6.42;56.47;99576.72;4182073;28;19909;-80
2024/03/08 08:19:58;;;;;;;;;;;;;;;6.45;56.14;99575.59;4180514;28;19967;-80
2024/03/08 08:21:58;;;;;;;;;;;;;;;6.52;56.26;99574.13;4180946;28;19991;-80
2024/03/08 08:24:06;;;;;;;;;;;;;;;6.55;56.03;99572.06;4181206;28;19993;-80
2024/03/08 08:26:07;;;;;;;;;;;;;;;6.40;56.04;99566.25;4181864;28;20004;-82
2024/03/08 08:28:08;;;;;;;;;;;;;;;6.62;55.76;99571.53;4183034;28;19912;-80
2024/03/08 08:30:15;;;;;;;;;;;;;;;6.77;55.45;99564.91;4183470;28;19909;-80
2024/03/08 08:32:23;;;;;;;;;;;;;;;6.78;55.45;99568.41;4182902;28;19909;-80
2024/03/08 08:34:31;;;;;;;;;;;;;;;6.67;55.92;99564.84;4183195;28;19915;-80
2024/03/08 08:36:32;;;;;;;;;;;;;;;6.74;55.59;99559.00;4186281;28;19920;-79
2024/03/08 08:38:32;;;;;;;;;;;;;;;6.84;55.21;99560.75;4181756;28;20299;-81
2024/03/08 08:40:33;;;;;;;;;;;;;;;6.82;55.00;99553.88;4181939;28;19908;-82
2024/03/08 08:42:34;;;;;;;;;;;;;;;6.59;55.50;99551.41;4184457;28;20007;-82
2024/03/08 08:44:35;;;;;;;;;;;;;;;6.30;55.93;99551.19;4182583;28;19962;-80
2024/03/08 08:46:37;;;;;;;;;;;;;;;6.59;55.37;99550.53;4178500;28;19920;-78
2024/03/08 08:48:37;;;;;;;;;;;;;;;6.86;54.67;99553.47;4164810;28;19915;-78
2024/03/08 08:50:39;;;;;;;;;;;;;;;6.75;54.75;99550.06;4173541;28;19913;-78
2024/03/08 08:52:40;;;;;;;;;;;;;;;7.08;54.14;99548.13;4172682;28;20281;-78
2024/03/08 08:54:40;;;;;;;;;;;;;;;6.72;54.89;99549.34;4167106;28;20006;-81
2024/03/08 08:56:47;;;;;;;;;;;;;;;6.64;55.19;99551.81;4168003;28;20256;-83
2024/03/08 08:58:48;;;;;;;;;;;;;;;6.51;55.41;99545.91;4167854;28;19909;-80
2024/03/08 09:00:52;;;;;;;;;;;;;;;6.55;55.58;99542.84;4169049;28;20000;-81
2024/03/08 09:02:55;;;;;;;;;;;;;;;6.86;54.96;99544.66;4170810;28;19935;-81
2024/03/08 09:04:55;;;;;;;;;;;;;;;7.05;54.17;99535.91;4171287;28;19916;-83
2024/03/08 09:07:01;;;;;;;;;;;;;;;6.95;54.49;99527.94;4169223;28;20392;-80
2024/03/08 09:09:03;;;;;;;;;;;;;;;6.93;54.43;99529.88;4170378;28;19947;-81
2024/03/08 09:11:24;;;;;;;;;;;;;;;6.95;54.21;99527.94;4171889;28;20269;-81
2024/03/08 09:13:24;;;;;;;;;;;;;;;7.21;53.46;99526.63;4170006;28;19909;-80
2024/03/08 09:15:28;;;;;;;;;;;;;;;7.40;53.28;99528.47;4171661;28;19972;-80
2024/03/08 09:17:29;;;;;;;;;;;;;;;7.17;53.47;99520.72;4171199;28;19909;-79
2024/03/08 09:19:29;;;;;;;;;;;;;;;7.23;53.46;99514.00;4167807;28;19925;-81
2024/03/08 09:21:31;;;;;;;;;;;;;;;7.33;53.33;99517.53;4169250;28;19995;-80
2024/03/08 09:23:31;;;;;;;;;;;;;;;7.39;53.39;99516.13;4167988;28;20015;-80
2024/03/08 09:25:44;;;;;;;;;;;;;;;7.31;53.29;99515.00;4169061;28;19908;-80
2024/03/08 09:27:46;;;;;;;;;;;;;;;7.36;53.02;99508.47;4168242;28;19979;-81
2024/03/08 09:29:49;;;;;;;;;;;;;;;7.18;53.39;99504.63;4168117;28;19909;-80
2024/03/08 09:31:49;;;;;;;;;;;;;;;7.13;53.33;99503.34;4167845;28;20019;-81
2024/03/08 09:33:50;;;;;;;;;;;;;;;7.17;53.44;99505.59;4170476;28;19909;-81
2024/03/08 09:35:51;;;;;;;;;;;;;;;7.11;53.41;99503.50;4179058;22;19926;-72
2024/03/08 09:37:51;;;;;;;;;;;;;;;7.00;54.03;99496.47;4147532;28;20012;-75
2024/03/08 09:39:52;;;;;;;;;;;;;;;7.30;53.38;99502.69;4149131;28;20385;-71
2024/03/08 09:41:52;;;;;;;;;;;;;;;7.16;53.45;99495.13;4149200;28;19917;-73
2024/03/08 09:43:53;;;;;;;;;;;;;;;7.39;52.99;99487.75;4148678;28;20377;-71
2024/03/08 09:45:53;;;;;;;;;;;;;;;7.83;52.15;99498.00;4147885;28;19960;-71
2024/03/08 09:47:54;;;;;;;;;;;;;;;7.94;51.69;99491.69;4148862;28;19921;-73
2024/03/08 09:49:54;;;;;;;;;;;;;;;8.13;51.11;99482.81;4148752;28;19913;-72
2024/03/08 09:51:55;;;;;;;;;;;;;;;8.28;50.66;99476.06;4148954;28;20420;-71
2024/03/08 09:53:57;;;;;;;;;;;;;;;8.72;50.13;99477.34;4148366;28;19910;-72
2024/03/08 09:55:58;;;;;;;;;;;;;;;8.62;49.63;99480.06;4147685;28;19916;-70
2024/03/08 10:00:24;;;;;;;;;;;;;;;8.68;49.50;99473.31;4132930;28;19916;-70
2024/03/08 10:02:24;;;;;;;;;;;;;;;8.61;49.36;99477.53;4147217;28;20405;-70
2024/03/08 10:04:25;;;;;;;;;;;;;;;8.82;49.35;99472.81;4132564;28;19960;-72
2024/03/08 10:06:26;;;;;;;;;;;;;;;8.71;49.11;99473.00;4147378;28;19913;-72
2024/03/08 10:08:27;;;;;;;;;;;;;;;8.83;49.23;99469.16;4132826;28;19914;-71
2024/03/08 10:10:28;;;;;;;;;;;;;;;8.85;49.11;99471.69;4132531;28;20388;-70
2024/03/08 10:12:28;;;;;;;;;;;;;;;8.69;49.53;99464.34;4132291;28;19950;-70
2024/03/08 10:14:29;;;;;;;;;;;;;;;8.45;50.42;99460.31;4132354;28;19910;-72
2024/03/08 10:16:29;;;;;;;;;;;;;;;8.41;50.29;99461.56;4147216;28;19949;-72
2024/03/08 10:18:30;;;;;;;;;;;;;;;8.18;50.82;99458.41;4132303;28;20273;-71
2024/03/08 10:20:33;;;;;;;;;;;;;;;8.52;50.34;99453.44;4132402;28;19916;-71
2024/03/08 10:22:35;;;;;;;;;;;;;;;8.89;49.54;99449.09;4132016;28;19953;-73
2024/03/08 10:24:35;;;;;;;;;;;;;;;8.94;49.53;99443.31;4131556;28;19952;-72
2024/03/08 10:26:37;;;;;;;;;;;;;;;9.16;49.20;99436.72;4146589;28;20353;-72
2024/03/08 10:28:38;;;;;;;;;;;;;;;9.17;50.12;99428.56;4132037;28;19921;-73
2024/03/08 10:30:38;;;;;;;;;;;;;;;9.49;48.17;99434.38;4131979;28;19993;-71
2024/03/08 10:32:39;;;;;;;;;;;;;;;9.30;48.42;99427.34;4132176;28;19925;-74
2024/03/08 10:34:41;;;;;;;;;;;;;;;8.86;49.10;99430.72;4146935;28;19914;-71
2024/03/08 10:36:42;;;;;;;;;;;;;;;9.16;48.80;99431.38;4131484;28;19922;-72
2024/03/08 10:38:46;;;;;;;;;;;;;;;9.44;48.45;99428.66;4132338;28;19976;-71
2024/03/08 10:40:51;;;;;;;;;;;;;;;9.44;48.49;99418.84;4132993;28;20429;-71
2024/03/08 10:42:51;;;;;;;;;;;;;;;9.16;48.71;99416.19;4132251;28;20547;-71
2024/03/08 10:45:06;;;;;;;;;;;;;;;9.36;48.42;99416.91;4146937;28;19993;-70